createdAt,value
2018-06-09T00:02:22.866Z,23.22
2018-06-09T00:04:53.741Z,23.10
2018-06-09T00:07:24.305Z,23.16
2018-06-09T00:09:54.795Z,23.19
2018-06-09T00:12:25.279Z,23.25
2018-06-09T00:14:55.776Z,23.19
2018-06-09T00:17:26.460Z,23.21
2018-06-09T00:19:56.800Z,23.20
2018-06-09T00:22:27.356Z,23.16
2018-06-09T00:24:57.833Z,23.11
2018-06-09T00:27:28.261Z,23.12
2018-06-09T00:29:58.664Z,23.07
2018-06-09T00:32:29.131Z,22.90
2018-06-09T00:34:59.647Z,23.00
2018-06-09T00:37:30.003Z,22.97
2018-06-09T00:40:00.682Z,22.94
2018-06-09T00:42:32.239Z,22.95
2018-06-09T00:45:02.750Z,22.95
2018-06-09T00:47:33.160Z,22.98
2018-06-09T00:50:04.599Z,22.95
2018-06-09T00:52:35.205Z,22.94
2018-06-09T00:55:05.697Z,22.93
2018-06-09T00:57:36.308Z,22.87
2018-06-09T01:00:06.835Z,22.78
2018-06-09T01:02:37.385Z,22.79
2018-06-09T01:05:07.896Z,22.79
2018-06-09T01:07:38.332Z,22.79
2018-06-09T01:10:08.770Z,22.74
2018-06-09T01:12:39.828Z,22.72
2018-06-09T01:15:10.442Z,22.72
2018-06-09T01:17:41.321Z,22.72
2018-06-09T01:20:11.830Z,22.69
2018-06-09T01:22:42.371Z,22.66
2018-06-09T01:25:12.866Z,22.65
2018-06-09T01:27:43.219Z,22.64
2018-06-09T01:30:13.683Z,22.60
2018-06-09T01:32:44.247Z,22.59
2018-06-09T01:35:14.628Z,22.51
2018-06-09T01:37:45.154Z,22.39
2018-06-09T01:40:15.731Z,22.28
2018-06-09T01:42:46.205Z,22.31
2018-06-09T01:45:16.597Z,22.13
2018-06-09T01:47:47.080Z,22.12
2018-06-09T01:50:17.605Z,22.04
2018-06-09T01:52:47.990Z,21.93
2018-06-09T01:55:18.691Z,21.94
2018-06-09T01:57:49.011Z,21.93
2018-06-09T02:00:19.363Z,21.89
2018-06-09T02:02:50.016Z,21.89
2018-06-09T02:05:20.456Z,21.79
2018-06-09T02:07:50.943Z,21.76
2018-06-09T02:10:21.519Z,21.76
2018-06-09T02:12:51.900Z,21.66
2018-06-09T02:15:22.334Z,21.69
2018-06-09T02:17:52.935Z,21.71
2018-06-09T02:20:23.404Z,21.71
2018-06-09T02:22:53.972Z,21.74
2018-06-09T02:25:24.584Z,21.72
2018-06-09T02:27:55.047Z,21.67
2018-06-09T02:30:25.516Z,21.68
2018-06-09T02:32:55.964Z,21.68
2018-06-09T02:35:26.317Z,21.66
2018-06-09T02:37:56.900Z,21.63
2018-06-09T02:40:27.451Z,21.61
2018-06-09T02:42:57.833Z,21.55
2018-06-09T02:45:28.260Z,21.50
2018-06-09T02:47:58.776Z,21.51
2018-06-09T02:50:29.263Z,21.49
2018-06-09T02:52:59.954Z,21.45
2018-06-09T02:55:30.395Z,21.41
2018-06-09T02:58:00.850Z,21.33
2018-06-09T03:00:31.209Z,21.26
2018-06-09T03:03:01.896Z,21.18
2018-06-09T03:05:32.328Z,21.09
2018-06-09T03:08:02.785Z,21.05
2018-06-09T03:10:33.175Z,21.04
2018-06-09T03:13:04.149Z,20.99
2018-06-09T03:15:34.649Z,20.99
2018-06-09T03:18:05.197Z,21.04
2018-06-09T03:20:35.940Z,21.07
2018-06-09T03:23:06.350Z,21.09
2018-06-09T03:25:37.262Z,21.32
2018-06-09T03:28:07.651Z,21.36
2018-06-09T03:30:38.107Z,21.41
2018-06-09T03:33:08.661Z,21.43
2018-06-09T03:35:39.233Z,21.56
2018-06-09T03:38:09.932Z,21.73
2018-06-09T03:40:40.244Z,21.88
2018-06-09T03:43:10.703Z,22.19
2018-06-09T03:45:41.245Z,22.55
2018-06-09T03:48:12.422Z,22.83
2018-06-09T03:50:43.244Z,23.16
2018-06-09T03:53:13.656Z,23.45
2018-06-09T03:55:44.131Z,23.55
2018-06-09T03:58:14.603Z,24.00
2018-06-09T04:00:45.080Z,24.44
2018-06-09T04:03:15.503Z,24.78
2018-06-09T04:05:45.940Z,24.88
2018-06-09T04:08:16.555Z,25.27
2018-06-09T04:10:47.047Z,25.57
2018-06-09T04:13:17.596Z,25.84
2018-06-09T04:15:48.141Z,25.85
2018-06-09T04:18:18.625Z,26.27
2018-06-09T04:20:49.077Z,26.48
2018-06-09T04:23:19.582Z,26.96
2018-06-09T04:25:50.174Z,26.94
2018-06-09T04:28:21.334Z,27.07
2018-06-09T04:30:52.025Z,27.37
2018-06-09T04:33:22.412Z,27.90
2018-06-09T04:35:53.155Z,27.96
2018-06-09T04:38:23.633Z,28.28
2018-06-09T04:40:54.009Z,28.61
2018-06-09T04:43:24.547Z,28.49
2018-06-09T04:45:54.987Z,28.61
2018-06-09T04:48:25.464Z,28.87
2018-06-09T04:50:55.912Z,28.89
2018-06-09T04:53:26.260Z,28.73
2018-06-09T04:55:57.093Z,29.13
2018-06-09T04:58:27.482Z,29.22
2018-06-09T05:00:57.946Z,29.62
2018-06-09T05:03:28.423Z,29.64
2018-06-09T05:05:58.788Z,30.06
2018-06-09T05:08:29.437Z,29.73
2018-06-09T05:11:00.097Z,29.93
2018-06-09T05:13:30.450Z,30.42
2018-06-09T05:16:01.022Z,30.27
2018-06-09T05:18:31.914Z,30.29
2018-06-09T05:21:02.244Z,30.45
2018-06-09T05:23:32.734Z,31.38
2018-06-09T05:26:03.152Z,31.77
2018-06-09T05:28:33.606Z,32.40
2018-06-09T05:31:04.099Z,31.48
2018-06-09T05:33:34.584Z,31.74
2018-06-09T05:36:04.980Z,31.41
2018-06-09T05:38:35.416Z,31.69
2018-06-09T05:41:05.764Z,31.65
2018-06-09T05:43:36.360Z,31.95
2018-06-09T05:46:06.832Z,31.59
2018-06-09T05:48:37.222Z,32.97
2018-06-09T05:51:07.632Z,32.64
2018-06-09T05:53:38.173Z,33.74
2018-06-09T05:56:09.010Z,32.28
2018-06-09T05:58:39.413Z,34.02
2018-06-09T06:01:09.890Z,34.47
2018-06-09T06:03:40.382Z,34.26
2018-06-09T06:06:10.848Z,33.83
2018-06-09T06:08:41.232Z,33.95
2018-06-09T06:11:11.841Z,33.34
2018-06-09T06:13:42.384Z,33.44
2018-06-09T06:16:12.794Z,33.19
2018-06-09T06:18:44.100Z,33.87
2018-06-09T06:21:14.735Z,33.94
2018-06-09T06:23:45.449Z,34.11
2018-06-09T06:26:15.928Z,32.97
2018-06-09T06:28:46.322Z,32.65
2018-06-09T06:31:17.000Z,33.06
2018-06-09T06:33:47.458Z,34.03
2018-06-09T06:36:17.839Z,34.31
2018-06-09T06:38:48.184Z,33.86
2018-06-09T06:41:18.690Z,34.52
2018-06-09T06:43:49.245Z,34.23
2018-06-09T06:46:19.765Z,34.00
2018-06-09T06:48:50.093Z,34.22
2018-06-09T06:51:20.687Z,34.69
2018-06-09T06:53:51.228Z,35.49
2018-06-09T06:56:21.637Z,34.71
2018-06-09T06:58:52.203Z,35.64
2018-06-09T07:01:22.528Z,35.53
2018-06-09T07:03:52.884Z,35.19
2018-06-09T07:06:23.581Z,34.70
2018-06-09T07:08:53.914Z,35.40
2018-06-09T07:11:24.702Z,35.44
2018-06-09T07:13:55.124Z,33.49
2018-06-09T07:16:25.652Z,34.28
2018-06-09T07:18:56.020Z,34.48
2018-06-09T07:21:26.492Z,35.58
2018-06-09T07:23:57.016Z,36.58
2018-06-09T07:26:27.439Z,36.37
2018-06-09T07:28:58.057Z,33.71
2018-06-09T07:31:28.642Z,34.12
2018-06-09T07:33:58.916Z,34.97
2018-06-09T07:36:29.555Z,35.00
2018-06-09T07:39:00.095Z,35.05
2018-06-09T07:41:30.520Z,36.28
2018-06-09T07:44:00.938Z,37.85
2018-06-09T07:46:31.260Z,36.88
2018-06-09T07:49:02.018Z,37.59
2018-06-09T07:51:32.458Z,37.16
2018-06-09T07:54:03.017Z,37.36
2018-06-09T07:56:33.459Z,36.25
2018-06-09T07:59:03.940Z,36.35
2018-06-09T08:01:34.508Z,36.15
2018-06-09T08:04:04.960Z,36.40
2018-06-09T08:06:35.345Z,36.99
2018-06-09T08:09:07.053Z,36.71
2018-06-09T08:11:37.557Z,36.00
2018-06-09T08:14:08.104Z,36.51
2018-06-09T08:16:38.624Z,35.56
2018-06-09T08:19:09.067Z,36.80
2018-06-09T08:21:39.362Z,36.77
2018-06-09T08:24:09.933Z,36.14
2018-06-09T08:26:40.480Z,35.72
2018-06-09T08:29:11.113Z,35.75
2018-06-09T08:31:41.465Z,36.94
2018-06-09T08:34:12.672Z,37.02
2018-06-09T08:36:43.000Z,35.11
2018-06-09T08:39:13.837Z,33.46
2018-06-09T08:41:44.155Z,32.85
2018-06-09T08:44:14.800Z,31.94
2018-06-09T08:46:45.256Z,31.97
2018-06-09T08:49:15.654Z,32.84
2018-06-09T08:51:46.200Z,33.24
2018-06-09T08:54:16.853Z,34.43
2018-06-09T08:56:47.234Z,33.39
2018-06-09T08:59:18.136Z,33.51
2018-06-09T09:01:48.557Z,33.84
2018-06-09T09:04:21.017Z,33.47
2018-06-09T09:06:51.476Z,33.68
2018-06-09T09:09:21.961Z,33.40
2018-06-09T09:11:52.504Z,33.70
2018-06-09T09:14:22.923Z,34.17
2018-06-09T09:16:53.366Z,35.41
2018-06-09T09:19:23.781Z,36.61
2018-06-09T09:21:54.257Z,39.03
2018-06-09T09:24:24.813Z,37.53
2018-06-09T09:26:55.207Z,36.37
2018-06-09T09:29:25.657Z,34.44
2018-06-09T09:31:56.179Z,33.02
2018-06-09T09:34:26.731Z,31.93
2018-06-09T09:36:57.099Z,31.70
2018-06-09T09:39:27.681Z,29.93
2018-06-09T09:41:58.066Z,28.57
2018-06-09T09:44:28.784Z,26.74
2018-06-09T09:46:59.330Z,23.36
2018-06-09T09:49:29.670Z,20.17
2018-06-09T09:52:00.239Z,18.77
2018-06-09T09:54:30.589Z,18.44
2018-06-09T09:57:01.443Z,18.65
2018-06-09T09:59:31.754Z,18.41
2018-06-09T10:02:02.156Z,18.16
2018-06-09T10:04:32.763Z,18.47
2018-06-09T10:07:03.203Z,18.42
2018-06-09T10:09:33.686Z,18.65
2018-06-09T10:12:04.239Z,18.75
2018-06-09T10:14:34.732Z,18.94
2018-06-09T10:17:05.598Z,18.83
2018-06-09T10:19:36.182Z,19.51
2018-06-09T10:22:06.511Z,19.67
2018-06-09T10:24:37.329Z,19.80
2018-06-09T10:27:07.903Z,20.31
2018-06-09T10:29:38.460Z,20.85
2018-06-09T10:32:09.004Z,21.60
2018-06-09T10:34:39.495Z,21.96
2018-06-09T10:37:10.106Z,22.14
2018-06-09T10:39:40.520Z,22.23
2018-06-09T10:42:11.137Z,22.30
2018-06-09T10:44:41.459Z,22.28
2018-06-09T10:47:12.071Z,22.30
2018-06-09T10:49:42.313Z,22.20
2018-06-09T10:52:13.076Z,22.06
2018-06-09T10:54:43.555Z,22.14
2018-06-09T10:57:14.009Z,22.29
2018-06-09T10:59:44.443Z,22.51
2018-06-09T11:02:14.814Z,22.83
2018-06-09T11:04:45.373Z,23.07
2018-06-09T11:07:15.980Z,23.01
2018-06-09T11:09:46.386Z,23.22
2018-06-09T11:12:16.867Z,23.47
2018-06-09T11:14:47.372Z,23.67
2018-06-09T11:17:18.002Z,23.61
2018-06-09T11:19:48.399Z,23.60
2018-06-09T11:22:18.807Z,23.64
2018-06-09T11:24:49.345Z,23.64
2018-06-09T11:27:19.921Z,23.59
2018-06-09T11:29:50.311Z,23.47
2018-06-09T11:32:20.953Z,23.33
2018-06-09T11:34:51.515Z,23.27
2018-06-09T11:37:21.938Z,23.15
2018-06-09T11:39:53.356Z,22.89
2018-06-09T11:42:24.499Z,22.82
2018-06-09T11:45:16.052Z,22.74
2018-06-09T11:47:46.359Z,22.71
2018-06-09T11:50:17.451Z,22.89
2018-06-09T11:52:47.702Z,23.18
2018-06-09T11:55:18.221Z,23.43
2018-06-09T11:57:48.621Z,23.64
2018-06-09T12:00:19.016Z,23.91
2018-06-09T12:02:49.231Z,24.21
2018-06-09T12:05:19.490Z,24.12
2018-06-09T12:07:49.766Z,24.17
2018-06-09T12:10:20.149Z,24.45
2018-06-09T12:12:50.305Z,24.92
2018-06-09T12:15:20.662Z,25.23
2018-06-09T12:17:51.008Z,26.15
2018-06-09T12:20:21.250Z,26.70
2018-06-09T12:22:51.609Z,27.22
2018-06-09T12:25:22.074Z,27.32
2018-06-09T12:27:52.685Z,26.92
2018-06-09T12:30:23.228Z,27.01
2018-06-09T12:32:53.738Z,26.50
2018-06-09T12:35:24.154Z,26.10
2018-06-09T12:37:54.807Z,26.21
2018-06-09T12:40:25.417Z,25.82
2018-06-09T12:42:55.737Z,25.75
2018-06-09T12:45:26.251Z,25.53
2018-06-09T12:47:56.609Z,25.60
2018-06-09T12:50:26.992Z,25.72
2018-06-09T12:52:57.194Z,25.93
2018-06-09T12:55:27.472Z,26.21
2018-06-09T12:57:57.677Z,26.11
2018-06-09T13:00:28.211Z,26.07
2018-06-09T13:02:58.631Z,26.00
2018-06-09T13:05:29.294Z,26.05
2018-06-09T13:07:59.655Z,25.82
2018-06-09T13:10:30.138Z,25.75
2018-06-09T13:13:00.444Z,25.72
2018-06-09T13:15:30.774Z,25.74
2018-06-09T13:18:01.298Z,25.74
2018-06-09T13:20:31.876Z,26.17
2018-06-09T13:23:02.421Z,25.63
2018-06-09T13:25:33.684Z,25.26
2018-06-09T13:28:04.323Z,25.32
2018-06-09T13:30:34.598Z,25.33
2018-06-09T13:33:04.895Z,24.93
2018-06-09T13:35:35.249Z,24.84
2018-06-09T13:38:05.514Z,24.65
2018-06-09T13:40:36.027Z,24.74
2018-06-09T13:43:06.664Z,24.79
2018-06-09T13:45:36.793Z,24.83
2018-06-09T13:48:07.214Z,24.60
2018-06-09T13:50:37.412Z,24.43
2018-06-09T13:53:07.793Z,24.51
2018-06-09T13:55:38.004Z,24.55
2018-06-09T13:58:08.319Z,24.81
2018-06-09T14:00:38.683Z,25.11
2018-06-09T14:03:09.050Z,25.33
2018-06-09T14:05:39.482Z,25.64
2018-06-09T14:08:09.830Z,25.85
2018-06-09T14:10:40.090Z,25.83
2018-06-09T14:13:10.493Z,25.71
2018-06-09T14:15:41.751Z,25.65
2018-06-09T14:18:12.007Z,25.47
2018-06-09T14:20:42.245Z,25.41
2018-06-09T14:23:12.528Z,25.50
2018-06-09T14:25:43.235Z,25.26
2018-06-09T14:28:13.500Z,25.25
2018-06-09T14:30:43.873Z,25.07
2018-06-09T14:33:14.167Z,24.63
2018-06-09T14:35:44.901Z,24.51
2018-06-09T14:38:15.471Z,24.46
2018-06-09T14:40:45.741Z,24.26
2018-06-09T14:43:16.087Z,24.17
2018-06-09T14:45:46.265Z,23.64
2018-06-09T14:48:16.565Z,24.07
2018-06-09T14:50:47.090Z,23.99
2018-06-09T14:53:17.149Z,24.06
2018-06-09T14:55:47.625Z,23.98
2018-06-09T14:58:18.214Z,23.68
2018-06-09T15:00:48.765Z,23.24
2018-06-09T15:03:20.987Z,22.81
2018-06-09T15:05:51.787Z,22.57
2018-06-09T15:08:22.340Z,22.41
2018-06-09T15:10:52.811Z,22.38
2018-06-09T15:13:23.424Z,22.33
2018-06-09T15:15:53.723Z,22.25
2018-06-09T15:18:24.673Z,22.01
2018-06-09T15:20:54.831Z,21.92
2018-06-09T15:23:25.155Z,21.91
2018-06-09T15:25:55.608Z,21.79
2018-06-09T15:28:26.062Z,21.55
2018-06-09T15:30:56.600Z,21.47
2018-06-09T15:33:27.199Z,21.28
2018-06-09T15:35:57.370Z,21.21
2018-06-09T15:38:27.736Z,21.23
2018-06-09T15:40:58.468Z,21.28
2018-06-09T15:43:28.519Z,21.23
2018-06-09T15:45:58.791Z,21.30
2018-06-09T15:48:29.273Z,21.28
2018-06-09T15:50:59.645Z,21.36
2018-06-09T15:53:30.383Z,21.35
2018-06-09T15:56:01.573Z,21.40
2018-06-09T15:58:31.981Z,21.48
2018-06-09T16:01:02.349Z,21.63
2018-06-09T16:03:32.937Z,21.80
2018-06-09T16:06:03.368Z,21.95
2018-06-09T16:08:33.809Z,21.97
2018-06-09T16:11:04.480Z,21.96
2018-06-09T16:13:35.049Z,21.96
2018-06-09T16:16:05.392Z,22.12
2018-06-09T16:18:36.073Z,22.03
2018-06-09T16:21:06.363Z,21.93
2018-06-09T16:23:37.016Z,21.95
2018-06-09T16:26:07.665Z,22.02
2018-06-09T16:28:38.259Z,22.01
2018-06-09T16:31:09.443Z,22.02
2018-06-09T16:33:40.078Z,21.94
2018-06-09T16:36:10.512Z,21.97
2018-06-09T16:38:41.106Z,21.96
2018-06-09T16:41:11.358Z,21.85
2018-06-09T16:43:41.952Z,21.95
2018-06-09T16:46:12.429Z,21.99
2018-06-09T16:48:43.012Z,21.98
2018-06-09T16:51:13.470Z,22.11
2018-06-09T16:53:43.917Z,22.10
2018-06-09T16:56:14.373Z,22.05
2018-06-09T16:58:44.790Z,22.11
2018-06-09T17:01:15.390Z,22.19
2018-06-09T17:03:45.843Z,22.14
2018-06-09T17:06:16.243Z,22.19
2018-06-09T17:08:46.841Z,22.10
2018-06-09T17:11:18.113Z,22.19
2018-06-09T17:13:48.583Z,21.98
2018-06-09T17:16:19.446Z,21.91
2018-06-09T17:18:50.079Z,21.80
2018-06-09T17:21:20.481Z,21.73
2018-06-09T17:23:50.919Z,21.64
2018-06-09T17:26:22.533Z,21.74
2018-06-09T17:28:52.820Z,21.70
2018-06-09T17:31:23.203Z,21.56
2018-06-09T17:33:53.754Z,21.59
2018-06-09T17:36:24.048Z,21.66
2018-06-09T17:38:54.533Z,21.59
2018-06-09T17:41:25.083Z,21.56
2018-06-09T17:43:55.483Z,21.48
2018-06-09T17:46:25.641Z,21.51
2018-06-09T17:48:56.015Z,21.61
2018-06-09T17:51:26.292Z,21.57
2018-06-09T17:53:56.630Z,21.62
2018-06-09T17:56:26.830Z,21.61
2018-06-09T17:58:57.087Z,21.57
2018-06-09T18:01:27.293Z,21.54
2018-06-09T18:03:57.699Z,21.53
2018-06-09T18:06:28.258Z,21.41
2018-06-09T18:08:58.650Z,21.47
2018-06-09T18:11:28.919Z,21.42
2018-06-09T18:13:59.228Z,21.49
2018-06-09T18:16:29.638Z,21.42
2018-06-09T18:18:59.961Z,21.37
2018-06-09T18:21:30.104Z,21.32
2018-06-09T18:24:00.640Z,21.22
2018-06-09T18:26:31.209Z,21.24
2018-06-09T18:29:01.784Z,21.33
2018-06-09T18:31:32.075Z,21.33
2018-06-09T18:34:02.568Z,21.48
2018-06-09T18:36:33.101Z,21.48
2018-06-09T18:39:04.057Z,21.43
2018-06-09T18:41:34.409Z,21.47
2018-06-09T18:44:04.645Z,21.30
2018-06-09T18:46:35.078Z,21.08
2018-06-09T18:49:05.567Z,20.93
2018-06-09T18:51:36.044Z,20.94
2018-06-09T18:54:06.590Z,20.88
2018-06-09T18:56:36.975Z,20.90
2018-06-09T18:59:07.344Z,20.87
2018-06-09T19:01:37.795Z,20.77
2018-06-09T19:04:08.408Z,20.77
2018-06-09T19:06:38.975Z,20.81
2018-06-09T19:09:10.089Z,20.80
2018-06-09T19:11:41.764Z,20.81
2018-06-09T19:14:13.457Z,20.88
2018-06-09T19:16:43.933Z,20.89
2018-06-09T19:19:14.467Z,20.77
2018-06-09T19:21:44.814Z,20.81
2018-06-09T19:24:15.379Z,20.84
2018-06-09T19:26:46.096Z,20.96
2018-06-09T19:29:16.501Z,20.96
2018-06-09T19:31:46.972Z,20.98
2018-06-09T19:34:17.328Z,21.05
2018-06-09T19:36:47.806Z,21.06
2018-06-09T19:39:18.233Z,21.06
2018-06-09T19:41:49.044Z,21.17
2018-06-09T19:44:19.416Z,21.10
2018-06-09T19:46:49.904Z,21.02
2018-06-09T19:49:20.529Z,20.73
2018-06-09T19:51:51.105Z,20.72
2018-06-09T19:54:21.484Z,20.62
2018-06-09T19:56:51.878Z,20.55
2018-06-09T19:59:22.243Z,20.52
2018-06-09T20:01:52.609Z,20.48
2018-06-09T20:04:23.146Z,20.51
2018-06-09T20:06:53.487Z,20.42
2018-06-09T20:09:23.837Z,20.39
2018-06-09T20:11:54.147Z,20.34
2018-06-09T20:14:24.491Z,20.30
2018-06-09T20:16:55.632Z,20.34
2018-06-09T20:19:25.952Z,20.38
2018-06-09T20:21:56.963Z,20.32
2018-06-09T20:24:27.301Z,20.26
2018-06-09T20:26:57.594Z,20.16
2018-06-09T20:29:28.163Z,20.20
2018-06-09T20:31:58.469Z,20.25
2018-06-09T20:34:28.735Z,20.40
2018-06-09T20:36:59.139Z,20.39
2018-06-09T20:39:29.485Z,20.44
2018-06-09T20:41:59.730Z,20.46
2018-06-09T20:44:30.400Z,20.48
2018-06-09T20:47:00.881Z,20.48
2018-06-09T20:49:31.086Z,20.45
2018-06-09T20:52:01.745Z,20.40
2018-06-09T20:54:32.197Z,20.40
2018-06-09T20:57:02.676Z,20.42
2018-06-09T20:59:33.422Z,20.43
2018-06-09T21:02:03.607Z,20.40
2018-06-09T21:04:33.812Z,20.35
2018-06-09T21:07:04.024Z,20.37
2018-06-09T21:09:34.444Z,20.34
2018-06-09T21:12:04.945Z,20.33
2018-06-09T21:14:36.239Z,20.30
2018-06-09T21:17:06.657Z,20.24
2018-06-09T21:19:37.269Z,20.36
2018-06-09T21:22:07.566Z,20.42
2018-06-09T21:24:38.197Z,20.37
2018-06-09T21:27:13.575Z,20.33
2018-06-09T21:29:49.027Z,20.32
2018-06-09T21:32:24.870Z,20.27
2018-06-09T21:35:06.763Z,20.22
2018-06-09T21:37:41.844Z,20.17
2018-06-09T21:40:19.383Z,20.13
2018-06-09T21:42:55.264Z,20.09
2018-06-09T21:45:30.399Z,20.08
2018-06-09T21:48:00.851Z,20.10
2018-06-09T21:50:32.302Z,20.12
2018-06-09T21:53:02.802Z,20.11
2018-06-09T21:55:33.080Z,20.02
2018-06-09T21:58:03.898Z,19.95
2018-06-09T22:00:34.438Z,20.05
2018-06-09T22:03:04.910Z,20.20
2018-06-09T22:05:35.283Z,20.15
2018-06-09T22:08:05.806Z,20.08
2018-06-09T22:10:36.810Z,19.99
2018-06-09T22:13:07.464Z,20.02
2018-06-09T22:15:37.924Z,19.96
2018-06-09T22:18:08.177Z,19.84
2018-06-09T22:20:38.475Z,19.91
2018-06-09T22:23:08.926Z,19.80
2018-06-09T22:25:44.337Z,19.74
2018-06-09T22:28:14.949Z,19.81
2018-06-09T22:30:45.518Z,19.75
2018-06-09T22:33:15.922Z,19.69
2018-06-09T22:35:46.494Z,19.69
2018-06-09T22:38:16.745Z,19.67
2018-06-09T22:40:47.359Z,19.77
2018-06-09T22:43:17.765Z,20.03
2018-06-09T22:45:48.215Z,19.93
2018-06-09T22:48:18.864Z,19.99
2018-06-09T22:50:49.409Z,19.96
2018-06-09T22:53:19.945Z,19.88
2018-06-09T22:55:50.395Z,19.89
2018-06-09T22:58:20.685Z,19.76
2018-06-09T23:00:51.810Z,19.72
2018-06-09T23:03:22.182Z,19.73
2018-06-09T23:05:52.635Z,19.71
2018-06-09T23:08:23.142Z,19.76
2018-06-09T23:10:53.347Z,19.76
2018-06-09T23:13:24.003Z,19.76
2018-06-09T23:15:54.166Z,19.77
2018-06-09T23:18:24.630Z,19.69
2018-06-09T23:20:54.853Z,19.57
2018-06-09T23:23:25.200Z,19.51
2018-06-09T23:25:55.488Z,19.43
2018-06-09T23:28:26.097Z,19.50
2018-06-09T23:30:56.340Z,19.44
2018-06-09T23:33:26.686Z,19.43
2018-06-09T23:35:57.020Z,19.44
2018-06-09T23:38:27.707Z,19.48
2018-06-09T23:40:58.215Z,19.48
2018-06-09T23:43:29.007Z,19.40
2018-06-09T23:45:59.575Z,19.37
2018-06-09T23:48:30.060Z,19.34
2018-06-09T23:51:00.640Z,19.36
2018-06-09T23:53:31.121Z,19.29
2018-06-09T23:56:02.251Z,19.27
2018-06-09T23:58:32.768Z,19.29
